Latest Weather Observations for Williamtown

IDN60801

Issued at 7:35 pm EST Thursday 31 July 2014 (issued every 30 minutes, with the page automatically refreshed every 10 minutes)

About weather observations | Map of weather stations | Latest weather observations for NSW | Other Formats
Station Details ID: 061078 Name: WILLIAMTOWN RAAF Lat: -32.79 Lon: 151.84 Height: 9.0 m
Data from the previous 72 hours. | See also: Recent months at Williamtown
Date/Time
EST
Temp
°C
App
Temp
°C
Dew
Point
Rel
Hum
%
Delta-T
°C
Wind Press
QNH
hPa
Press
MSL
hPa
Rain
since 9 am
mm
Dir
 
Spd
km/h
Gust
km/h
Spd
kts
Gust
kts
31/07:30pm 17.2 12.6 -1.4 28 7.8 N 13 17 7 9 1010.0 - 0.0
31/07:00pm 18.0 12.7 -0.7 28 8.0 N 17 19 9 10 1010.2 - 0.0
31/06:30pm 18.5 13.1 -1.2 26 8.4 NNW 17 22 9 12 1010.3 - 0.0
31/06:00pm 18.6 13.1 -1.8 25 8.6 NNW 17 20 9 11 1010.2 1010.3 0.0
31/05:30pm 18.5 13.6 -0.8 27 8.3 NNW 15 19 8 10 1010.0 - 0.0
31/05:00pm 21.1 15.5 -3.3 19 10.2 NW 17 24 9 13 1010.0 - 0.0
31/04:30pm 22.3 16.3 -3.2 18 10.8 NW 19 28 10 15 1010.0 - 0.0
31/04:00pm 23.5 16.1 -7.3 12 12.2 NW 24 41 13 22 1010.3 - 0.0
31/03:30pm 23.9 15.1 -6.1 13 12.2 NW 32 43 17 23 1010.5 - 0.0
31/03:00pm 24.3 15.8 -7.2 12 12.6 NNW 30 43 16 23 1010.6 1010.7 0.0
31/02:30pm 24.3 17.0 -2.9 16 11.8 NW 26 39 14 21 1011.0 - 0.0
31/02:20pm 24.3 16.7 -2.4 17 11.7 NW 28 46 15 25 1011.1 - 0.0
31/02:00pm 24.4 14.7 -5.2 13 12.3 NW 37 54 20 29 1011.3 - 0.0
31/01:45pm 24.5 16.0 -3.4 15 12.0 NW 32 50 17 27 1011.4 - 0.0
31/01:30pm 24.3 15.6 -3.4 15 11.9 NW 33 48 18 26 1011.6 - 0.0
31/01:00pm 24.2 15.8 -1.4 18 11.4 NW 33 46 18 25 1012.3 - 0.0
31/12:54pm 24.2 15.3 -2.3 17 11.6 NNW 35 46 19 25 1012.5 - 0.0
31/12:38pm 24.3 14.6 -2.5 17 11.7 WNW 39 59 21 32 1012.8 - 0.0
31/12:30pm 24.2 14.4 -2.7 16 11.7 NW 39 56 21 30 1013.0 - 0.0
31/12:22pm 24.1 15.9 -0.8 19 11.2 NW 32 50 17 27 1013.2 - 0.0
31/12:19pm 24.0 16.6 -0.6 19 11.1 NW 28 44 15 24 1013.3 - 0.0
31/12:00pm 23.2 18.2 3.7 28 9.5 WNW 19 26 10 14 1013.7 1013.8 0.0
31/11:30am 21.7 18.3 5.7 35 8.0 WNW 13 15 7 8 1014.5 - 0.0
31/11:00am 20.2 17.1 5.6 38 7.2 NW 11 15 6 8 1015.3 - 0.0
31/10:30am 18.4 15.2 4.9 41 6.5 N 11 15 6 8 1015.9 - 0.0
31/10:00am 17.6 13.5 4.2 41 6.3 NW 15 19 8 10 1016.5 - 0.0
31/09:30am 16.6 12.1 4.2 43 5.8 NW 17 19 9 10 1016.8 - 0.0
31/09:00am 15.1 11.4 4.3 48 5.0 NW 13 15 7 8 1017.1 1017.2 0.0
31/08:30am 13.7 10.1 5.1 56 4.0 NW 13 15 7 8 1017.1 - 0.0
31/08:00am 11.2 8.4 6.8 74 2.1 NW 11 13 6 7 1017.3 - 0.0
31/07:30am 8.2 4.6 4.8 79 1.5 WNW 13 15 7 8 1017.3 - 0.0
31/07:00am 4.8 1.3 3.3 90 0.6 NW 11 11 6 6 1017.2 - 0.0
31/06:30am 4.8 3.4 3.3 90 0.6 CALM 0 0 0 0 1017.1 - 0.0
31/06:00am 4.9 3.5 3.7 92 0.5 N 0 0 0 0 1017.0 1017.1 0.0
31/05:30am 4.8 2.9 3.1 89 0.7 N 2 7 1 4 1016.9 - 0.0
31/05:00am 4.7 1.6 3.7 93 0.4 N 9 11 5 6 1016.8 - 0.0
31/04:30am 4.7 2.1 3.0 89 0.7 WNW 6 7 3 4 1016.7 - 0.0
31/04:00am 6.0 3.0 4.1 88 0.8 W 9 11 5 6 1016.7 - 0.0
31/03:30am 5.4 2.7 3.7 89 0.7 WSW 7 9 4 5 1016.8 - 0.0
31/03:00am 6.1 5.0 4.9 92 0.5 CALM 0 0 0 0 1016.8 1016.9 0.0
31/02:30am 6.3 5.1 4.7 89 0.7 CALM 0 0 0 0 1017.0 - 0.0
31/02:00am 6.6 5.3 4.3 85 1.0 CALM 0 0 0 0 1017.2 - 0.0
31/01:30am 7.3 5.7 4.3 81 1.3 WNW 2 7 1 4 1017.3 - 0.0
31/01:00am 7.6 4.8 5.1 84 1.1 NW 9 9 5 5 1017.6 - 0.0
31/12:30am 7.6 4.8 5.1 84 1.1 NW 9 9 5 5 1017.8 - 0.0
31/12:00am 8.4 6.0 5.3 81 1.4 W 7 9 4 5 1018.1 1018.2 0.0
 
Date/Time
EST
Temp
°C
App
Temp
°C
Dew
Point
Rel
Hum
%
Delta-T
°C
Wind Press
QNH
hPa
Press
MSL
hPa
Rain
since 9 am
mm
Dir
 
Spd
km/h
Gust
km/h
Spd
kts
Gust
kts
30/11:30pm 9.5 7.2 5.5 76 1.8 W 7 9 4 5 1018.3 - 0.0
30/11:00pm 10.2 7.9 5.8 74 2.0 NW 7 9 4 5 1018.6 - 0.0
30/10:30pm 12.7 9.4 4.6 58 3.7 WNW 11 11 6 6 1018.5 - 0.0
30/10:00pm 12.9 9.3 4.8 58 3.7 WNW 13 15 7 8 1018.5 - 0.0
30/09:30pm 9.8 7.7 6.6 80 1.5 NW 7 9 4 5 1018.6 - 0.0
30/09:00pm 11.1 9.2 6.6 74 2.1 WNW 6 7 3 4 1018.7 1018.8 0.0
30/08:30pm 13.5 9.9 5.1 57 3.9 W 13 13 7 7 1018.6 - 0.0
30/08:00pm 12.7 9.7 5.9 63 3.2 WNW 11 13 6 7 1018.3 - 0.0
30/07:30pm 12.3 11.5 6.6 68 2.7 CALM 0 0 0 0 1018.0 - 0.0
30/07:00pm 13.9 11.7 6.4 60 3.6 NNW 7 9 4 5 1017.7 - 0.0
30/06:30pm 17.1 13.4 4.6 43 5.9 N 13 17 7 9 1017.3 - 0.0
30/06:00pm 16.8 15.8 5.6 47 5.4 CALM 0 0 0 0 1017.1 1017.2 0.0
30/05:30pm 17.9 13.6 5.2 43 6.1 WNW 17 22 9 12 1016.7 - 0.0
30/05:00pm 20.0 14.5 4.1 35 7.6 WNW 22 30 12 16 1016.3 - 0.0
30/04:30pm 21.3 14.6 3.8 31 8.4 WNW 28 37 15 20 1016.0 - 0.0
30/04:00pm 21.9 14.4 3.3 29 8.9 WNW 32 41 17 22 1015.9 - 0.0
30/03:30pm 22.3 13.4 3.3 28 9.1 WNW 39 54 21 29 1015.8 - 0.0
30/03:06pm 22.4 14.0 3.5 29 9.1 WNW 37 56 20 30 1015.9 - 0.0
30/03:00pm 22.6 13.3 2.9 27 9.4 WNW 41 54 22 29 1015.9 1016.0 0.0
30/02:37pm 22.2 13.2 2.5 27 9.3 WNW 39 57 21 31 1015.8 - 0.0
30/02:30pm 22.4 12.6 2.5 27 9.4 WNW 43 57 23 31 1015.9 - 0.0
30/02:00pm 22.2 12.2 2.1 26 9.4 WNW 44 57 24 31 1015.9 - 0.0
30/01:40pm 22.4 13.5 3.2 28 9.2 WNW 39 67 21 36 1016.1 - 0.0
30/01:30pm 22.3 14.2 3.0 28 9.2 WNW 35 48 19 26 1016.3 - 0.0
30/01:04pm 22.4 12.7 2.8 27 9.3 WNW 43 61 23 33 1016.7 - 0.0
30/01:00pm 22.1 11.8 2.6 27 9.2 WNW 46 61 25 33 1016.6 - 0.0
30/12:48pm 21.9 12.5 2.6 28 9.1 WNW 41 67 22 36 1016.5 - 0.0
30/12:30pm 21.8 14.2 3.1 29 8.9 NW 32 48 17 26 1017.1 - 0.0
30/12:00pm 21.5 13.7 2.9 29 8.8 NW 33 43 18 23 1017.8 1017.9 0.0
30/11:30am 21.0 14.1 2.3 29 8.7 WNW 28 39 15 21 1019.0 - 0.0
30/11:00am 20.2 13.2 1.9 29 8.4 WNW 28 37 15 20 1019.3 - 0.0
30/10:30am 19.6 11.8 1.5 30 8.2 W 32 44 17 24 1019.8 - 0.0
30/10:00am 18.9 11.5 1.6 31 7.8 WNW 30 39 16 21 1019.9 - 0.0
30/09:30am 17.9 10.4 0.9 32 7.5 W 30 43 16 23 1020.3 - 0.0
30/09:07am 17.3 9.7 0.5 32 7.3 W 30 48 16 26 1019.8 - 0.0
30/09:00am 17.2 9.7 1.4 34 7.0 W 30 41 16 22 1019.8 1019.9 0.0
30/08:30am 15.6 10.8 2.7 42 5.8 NW 17 24 9 13 1020.0 - 0.0
30/08:00am 14.3 9.0 1.6 42 5.5 NNW 19 28 10 15 1019.8 - 0.0
30/07:30am 12.4 6.3 2.5 51 4.3 NW 24 28 13 15 1019.4 - 0.0
30/07:00am 11.6 6.4 2.6 54 3.9 NW 19 28 10 15 1019.2 - 0.0
30/06:30am 11.8 7.3 2.0 51 4.2 NNW 15 22 8 12 1018.9 - 0.0
30/06:00am 10.3 6.7 2.8 59 3.2 N 11 15 6 8 1018.7 1018.8 0.0
30/05:30am 12.4 8.6 1.9 48 4.5 NNW 11 15 6 8 1018.3 - 0.0
30/05:00am 11.6 8.9 2.6 54 3.9 NNW 6 17 3 9 1018.2 - 0.0
30/04:30am 9.4 7.7 3.9 68 2.4 NNE 2 9 1 5 1018.1 - 0.0
30/04:00am 9.3 6.2 3.8 68 2.4 NE 9 13 5 7 1018.0 - 0.0
30/03:30am 9.9 6.8 3.4 64 2.8 N 9 11 5 6 1017.9 - 0.0
30/03:00am 10.1 8.3 3.7 64 2.8 NNW 2 11 1 6 1018.1 1018.2 0.0
30/02:30am 11.4 7.4 2.9 56 3.7 NW 13 15 7 8 1018.0 - 0.0
30/02:00am 11.4 7.8 3.2 57 3.6 WNW 11 15 6 8 1017.9 - 0.0
30/01:30am 10.9 7.4 3.6 60 3.2 WNW 11 15 6 8 1018.0 - 0.0
30/01:00am 11.6 8.5 3.4 57 3.6 WNW 9 11 5 6 1018.0 - 0.0
30/12:30am 12.5 9.3 2.9 52 4.2 WNW 9 11 5 6 1018.0 - 0.0
30/12:00am 12.8 8.8 3.1 51 4.3 WNW 13 17 7 9 1018.0 1018.1 0.0
 
Date/Time
EST
Temp
°C
App
Temp
°C
Dew
Point
Rel
Hum
%
Delta-T
°C
Wind Press
QNH
hPa
Press
MSL
hPa
Rain
since 9 am
mm
Dir
 
Spd
km/h
Gust
km/h
Spd
kts
Gust
kts
29/11:30pm 14.1 10.5 2.9 47 5.0 NW 11 15 6 8 1018.0 - 0.0
29/11:00pm 12.6 10.8 3.4 53 4.1 WSW 2 7 1 4 1018.3 - 0.0
29/10:30pm 14.4 10.5 3.6 48 4.9 NNW 13 17 7 9 1018.2 - 0.0
29/10:00pm 15.5 10.4 3.1 43 5.6 NW 19 26 10 14 1018.1 - 0.0
29/09:30pm 15.6 10.5 3.9 45 5.4 NW 20 26 11 14 1018.1 - 0.0
29/09:00pm 15.7 10.5 3.7 44 5.5 NNW 20 26 11 14 1018.2 1018.3 0.0
29/08:30pm 16.7 10.7 3.4 41 6.1 NNW 24 32 13 17 1018.2 - 0.0
29/08:00pm 16.7 11.7 3.4 41 6.1 NNW 19 26 10 14 1018.1 - 0.0
29/07:30pm 17.0 12.3 3.3 40 6.3 NNW 17 26 9 14 1018.0 - 0.0
29/07:00pm 16.3 12.0 3.1 41 6.0 NNW 15 22 8 12 1018.1 - 0.0
29/06:30pm 16.3 12.3 3.1 41 6.0 NNW 13 17 7 9 1017.8 - 0.0
29/06:00pm 16.0 11.7 3.3 42 5.8 NNW 15 19 8 10 1017.6 1017.7 0.0
29/05:30pm 16.5 12.2 3.1 40 6.1 NNW 15 20 8 11 1017.3 - 0.0
29/05:00pm 18.0 13.7 3.4 38 6.8 NNW 15 22 8 12 1017.0 - 0.0
29/04:30pm 19.4 14.6 2.5 32 7.8 NNW 17 26 9 14 1016.7 - 0.0
29/04:00pm 20.1 14.3 2.1 30 8.3 NNW 22 33 12 18 1016.2 - 0.0
29/03:30pm 20.3 13.4 2.4 30 8.3 NW 28 39 15 21 1016.3 - 0.0
29/03:00pm 20.6 13.6 1.9 29 8.6 WNW 28 35 15 19 1016.4 1016.5 0.0
29/02:30pm 20.9 13.4 1.4 27 8.9 WNW 30 37 16 20 1016.7 - 0.0
29/02:00pm 20.6 13.1 1.2 27 8.8 WNW 30 41 16 22 1016.9 - 0.0
29/01:40pm 20.9 13.5 -0.4 24 9.4 WNW 28 48 15 26 1016.4 - 0.0
29/01:30pm 21.2 13.5 0.2 24 9.4 WNW 30 43 16 23 1016.6 - 0.0
29/01:01pm 21.9 13.7 0.1 23 9.8 WNW 33 52 18 28 1016.9 - 0.0
29/01:00pm 21.8 13.3 0.6 24 9.6 WNW 35 52 19 28 1017.0 - 0.0
29/12:49pm 20.5 11.8 -0.5 24 9.2 NW 35 54 19 29 1017.1 - 0.0
29/12:30pm 20.9 12.0 0.7 26 9.1 NW 37 54 20 29 1017.5 - 0.0
29/12:00pm 19.5 9.9 1.3 29 8.2 NW 41 54 22 29 1018.5 1018.6 0.0
29/11:30am 19.4 10.4 2.5 32 7.8 WNW 39 52 21 28 1019.4 - 0.0
29/11:00am 18.6 11.0 3.7 37 7.0 WNW 33 46 18 25 1020.1 - 0.0
29/10:30am 18.2 11.2 3.9 38 6.7 WNW 30 41 16 22 1020.2 - 0.0
29/10:00am 16.6 9.9 3.9 42 5.9 NW 28 35 15 19 1020.3 - 0.0
29/09:30am 15.0 9.6 4.7 50 4.8 NW 22 32 12 17 1020.4 - 0.0
29/09:00am 13.9 7.3 4.0 51 4.5 NW 28 35 15 19 1020.5 1020.6 0.0
29/08:30am 13.0 6.3 3.9 54 4.1 WNW 28 35 15 19 1020.4 - 0.0
29/08:00am 11.8 5.5 3.7 57 3.6 NW 26 39 14 21 1020.3 - 0.0
29/07:30am 10.8 5.3 4.0 63 3.0 NW 22 28 12 15 1020.2 - 0.0
29/07:00am 9.7 5.2 4.0 67 2.5 NW 17 26 9 14 1020.0 - 0.0
29/06:30am 9.5 4.4 4.3 70 2.3 NW 20 28 11 15 1019.8 - 0.0
29/06:00am 9.8 3.6 4.1 67 2.5 WNW 26 33 14 18 1019.6 1019.7 0.0
29/05:30am 10.3 3.3 4.2 66 2.7 WNW 30 37 16 20 1019.4 - 0.0
29/05:00am 10.4 3.4 4.3 66 2.7 WNW 30 41 16 22 1019.1 - 0.0
29/04:30am 10.1 4.0 4.7 69 2.4 WNW 26 32 14 17 1019.3 - 0.0
29/04:00am 10.0 3.9 4.6 69 2.4 WNW 26 33 14 18 1019.2 - 0.0
29/03:30am 9.2 4.4 4.9 74 1.9 WNW 19 22 10 12 1019.0 - 0.0
29/03:00am 8.4 4.0 5.0 79 1.5 NW 17 19 9 10 1019.0 1019.1 0.0
29/02:30am 8.3 4.6 4.7 78 1.6 WNW 13 15 7 8 1019.0 - 0.0
29/02:00am 9.4 5.4 4.7 72 2.1 WNW 15 15 8 8 1019.2 - 0.0
29/01:30am 10.0 7.1 4.9 70 2.3 NW 9 15 5 8 1019.2 - 0.0
29/01:00am 9.7 6.1 5.0 72 2.1 NW 13 17 7 9 1019.5 - 0.0
29/12:30am 10.1 5.8 5.2 71 2.2 WNW 17 19 9 10 1019.9 - 0.0
29/12:00am 10.7 6.3 4.9 67 2.6 NW 17 20 9 11 1020.1 1020.2 0.0
 
Date/Time
EST
Temp
°C
App
Temp
°C
Dew
Point
Rel
Hum
%
Delta-T
°C
Wind Press
QNH
hPa
Press
MSL
hPa
Rain
since 9 am
mm
Dir
 
Spd
km/h
Gust
km/h
Spd
kts
Gust
kts
28/11:30pm 10.5 6.5 4.7 67 2.6 NW 15 17 8 9 1020.3 - 0.0
28/11:00pm 10.4 6.3 4.6 67 2.6 WNW 15 17 8 9 1020.4 - 0.0
28/10:30pm 9.9 6.6 4.5 69 2.4 WNW 11 11 6 6 1020.5 - 0.0
28/10:00pm 10.7 7.0 4.2 64 2.9 WNW 13 13 7 7 1020.6 - 0.0
28/09:30pm 11.2 7.5 4.5 63 3.0 WNW 13 15 7 8 1020.4 - 0.0
28/09:00pm 12.1 8.8 4.6 60 3.4 NW 11 13 6 7 1020.3 1020.4 0.0
28/08:30pm 13.3 9.5 4.0 53 4.2 NNW 13 17 7 9 1020.2 - 0.0
28/08:00pm 13.9 10.1 4.0 51 4.5 NNW 13 17 7 9 1020.2 - 0.0

Other Formats:

Comma delimited format used in spreadsheet applications
http://www.bom.gov.au/fwo/IDN60801/IDN60801.94776.axf

JavaScript Object Notation format (JSON) in row-major order
http://www.bom.gov.au/fwo/IDN60801/IDN60801.94776.json